Summer Star — WDC7297 — position and weather

sailwx.info

Track history (hours):
 
Tides and Currents Weather Stations Pressure Air Temp Water Temp Dewpoint Dewpoint Depression Visibility Wind Speed Wind Dir Waves Ship Positions

Summer Star

Owner: Summer Star, Port Everglades, FL. More information available from US FCC via Universal Licensing System.

Last reported at 2018-Apr-19 10:43 UTC. Time now 2018-Apr-23 13:51 UTC.
Position N 31°46' W 081°10'.

; draft 2 m.

Type: Towing. MMSI: 367069280.

Date/timePositionNaut miles runAvg speedWind from/ knotsBaromVisibWave heightAir tempDewpointWater temp
2018-Apr-19 10:43N 31°46' W 081°10'3 5.7
2018-Apr-19 10:07N 31°49' W 081°10'2 8.0
2018-Apr-19 09:54N 31°51' W 081°09'3 6.4
2018-Apr-19 09:25N 31°51' W 081°05'3 6.4
2018-Apr-19 09:00N 31°54' W 081°06'2 4.8
2018-Apr-19 08:29N 31°56' W 081°05'2 5.2
2018-Apr-19 08:00N 31°58' W 081°03'2 4.7
2018-Apr-19 07:30N 31°60' W 081°01'3 5.7
2018-Apr-19 07:00N 32°03' W 081°03'3 5.3
2018-Apr-19 06:30N 32°04' W 080°60'3 6.7
2018-Apr-19 06:00N 32°05' W 080°56'3 6.2
2018-Apr-19 05:30N 32°07' W 080°54'3 6.3
2018-Apr-19 05:00N 32°09' W 080°50'5 7.4
2018-Apr-19 04:16N 32°13' W 080°47'10 5.5
2018-Apr-19 02:31N 32°21' W 080°40'1 6.8
2018-Apr-19 02:26N 32°21' W 080°40'3 6.5
2018-Apr-19 02:00N 32°24' W 080°40'2 3.5
2018-Apr-19 01:30N 32°26' W 080°40'3 5.4
2018-Apr-19 00:59N 32°28' W 080°41'7 6.5
2018-Apr-18 23:57N 32°30' W 080°34'166 6.0
2018-Apr-17 20:07N 34°12' W 077°57'1 9.1
2018-Apr-17 20:00N 34°13' W 077°57'0 0.1
2018-Apr-17 18:28N 34°13' W 077°57'0 0.0
2018-Apr-17 16:25N 34°13' W 077°57'0 0.2
2018-Apr-17 16:00N 34°13' W 077°57'0 0.2
2018-Apr-17 15:30N 34°14' W 077°57'0 0.0
2018-Apr-17 15:00N 34°14' W 077°57'1 1.5
2018-Apr-17 14:10N 34°12' W 077°57'1 7.7
2018-Apr-17 14:00N 34°13' W 077°57'2 0.1
2018-Apr-16 21:25N 34°11' W 077°57'2 5.3
2018-Apr-16 20:59N 34°13' W 077°57'0 0.2
2018-Apr-16 20:29N 34°14' W 077°57'  
2018-Apr-13 18:49N 34°12' W 077°57'1 3.6
2018-Apr-13 18:29N 34°14' W 077°57'0 0.0
2018-Apr-13 18:00N 34°14' W 077°57'0 0.1
2018-Apr-13 17:30N 34°14' W 077°57'0 0.0
2018-Apr-13 16:59N 34°13' W 077°57'0 0.0
2018-Apr-13 16:30N 34°14' W 077°57'0 0.0
2018-Apr-13 15:59N 34°13' W 077°57'0 0.0
2018-Apr-13 13:57N 34°13' W 077°57'0 0.0
2018-Apr-13 13:30N 34°14' W 077°57'0 0.1
2018-Apr-13 13:00N 34°14' W 077°57'0 0.1
2018-Apr-13 12:30N 34°14' W 077°57'0 0.1
2018-Apr-13 12:00N 34°14' W 077°57'0 0.0
2018-Apr-13 11:30N 34°14' W 077°57'0 0.0
2018-Apr-13 11:00N 34°14' W 077°57'0 0.0
2018-Apr-13 10:30N 34°14' W 077°57'0 0.0
2018-Apr-13 10:00N 34°14' W 077°57'0 0.0
2018-Apr-13 09:30N 34°14' W 077°57'0 0.0
2018-Apr-13 09:00N 34°14' W 077°57'0 0.0
2018-Apr-13 08:30N 34°14' W 077°57'0 0.0
2018-Apr-13 08:00N 34°14' W 077°57'0 0.0
2018-Apr-13 07:30N 34°14' W 077°57'3 0.1
2018-Apr-12 08:58N 34°11' W 077°57'3 5.7
2018-Apr-12 08:30N 34°14' W 077°57'1 2.1
2018-Apr-12 07:59N 34°12' W 077°57'  
Track history (hours):
 
Tides and Currents Weather Stations Pressure Air Temp Water Temp Dewpoint Dewpoint Depression Visibility Wind Speed Wind Dir Waves Ship Positions

Summer Star

Owner: Summer Star, Port Everglades, FL. More information available from US FCC via Universal Licensing System.

Last reported at 2018-Apr-19 10:43 UTC. Time now 2018-Apr-23 13:51 UTC.
Position N 31°46' W 081°10'.

; draft 2 m.

Type: Towing. MMSI: 367069280.

Date/timePositionNaut miles runAvg speedWind from/ knotsBaromVisibWave heightAir tempDewpointWater temp
2018-Apr-19 10:43N 31°46' W 081°10'3 5.7
2018-Apr-19 10:07N 31°49' W 081°10'2 8.0
2018-Apr-19 09:54N 31°51' W 081°09'3 6.4
2018-Apr-19 09:25N 31°51' W 081°05'3 6.4
2018-Apr-19 09:00N 31°54' W 081°06'2 4.8
2018-Apr-19 08:29N 31°56' W 081°05'2 5.2
2018-Apr-19 08:00N 31°58' W 081°03'2 4.7
2018-Apr-19 07:30N 31°60' W 081°01'3 5.7
2018-Apr-19 07:00N 32°03' W 081°03'3 5.3
2018-Apr-19 06:30N 32°04' W 080°60'3 6.7
2018-Apr-19 06:00N 32°05' W 080°56'3 6.2
2018-Apr-19 05:30N 32°07' W 080°54'3 6.3
2018-Apr-19 05:00N 32°09' W 080°50'5 7.4
2018-Apr-19 04:16N 32°13' W 080°47'10 5.5
2018-Apr-19 02:31N 32°21' W 080°40'1 6.8
2018-Apr-19 02:26N 32°21' W 080°40'3 6.5
2018-Apr-19 02:00N 32°24' W 080°40'2 3.5
2018-Apr-19 01:30N 32°26' W 080°40'3 5.4
2018-Apr-19 00:59N 32°28' W 080°41'7 6.5
2018-Apr-18 23:57N 32°30' W 080°34'166 6.0
2018-Apr-17 20:07N 34°12' W 077°57'1 9.1
2018-Apr-17 20:00N 34°13' W 077°57'0 0.1
2018-Apr-17 18:28N 34°13' W 077°57'0 0.0
2018-Apr-17 16:25N 34°13' W 077°57'0 0.2
2018-Apr-17 16:00N 34°13' W 077°57'0 0.2
2018-Apr-17 15:30N 34°14' W 077°57'0 0.0
2018-Apr-17 15:00N 34°14' W 077°57'1 1.5
2018-Apr-17 14:10N 34°12' W 077°57'1 7.7
2018-Apr-17 14:00N 34°13' W 077°57'2 0.1
2018-Apr-16 21:25N 34°11' W 077°57'2 5.3
2018-Apr-16 20:59N 34°13' W 077°57'0 0.2
2018-Apr-16 20:29N 34°14' W 077°57'  
2018-Apr-13 18:49N 34°12' W 077°57'1 3.6
2018-Apr-13 18:29N 34°14' W 077°57'0 0.0
2018-Apr-13 18:00N 34°14' W 077°57'0 0.1
2018-Apr-13 17:30N 34°14' W 077°57'0 0.0
2018-Apr-13 16:59N 34°13' W 077°57'0 0.0
2018-Apr-13 16:30N 34°14' W 077°57'0 0.0
2018-Apr-13 15:59N 34°13' W 077°57'0 0.0
2018-Apr-13 13:57N 34°13' W 077°57'0 0.0
2018-Apr-13 13:30N 34°14' W 077°57'0 0.1
2018-Apr-13 13:00N 34°14' W 077°57'0 0.1
2018-Apr-13 12:30N 34°14' W 077°57'0 0.1
2018-Apr-13 12:00N 34°14' W 077°57'0 0.0
2018-Apr-13 11:30N 34°14' W 077°57'0 0.0
2018-Apr-13 11:00N 34°14' W 077°57'0 0.0
2018-Apr-13 10:30N 34°14' W 077°57'0 0.0
2018-Apr-13 10:00N 34°14' W 077°57'0 0.0
2018-Apr-13 09:30N 34°14' W 077°57'0 0.0
2018-Apr-13 09:00N 34°14' W 077°57'0 0.0
2018-Apr-13 08:30N 34°14' W 077°57'0 0.0
2018-Apr-13 08:00N 34°14' W 077°57'0 0.0
2018-Apr-13 07:30N 34°14' W 077°57'3 0.1
2018-Apr-12 08:58N 34°11' W 077°57'3 5.7
2018-Apr-12 08:30N 34°14' W 077°57'1 2.1
2018-Apr-12 07:59N 34°12' W 077°57'  

Dump ship's entire track history